Data for 01/15/2009

Time Sea-Level Adjusted Pressure Absolute Pressure Temperature Relative Humidity Dew Point   
(mb) (inHg) (mb) (inHg) (C) (F) (%) (C) (F)
00:05 1027 30.33 856 25.28 2 35.6 65 -3.9 25
00:10 1027 30.33 856 25.28 2.1 35.8 64 -4.1 24.6
00:15 1027 30.33 856 25.28 2.2 36 63 -4.1 24.6
00:20 1027 30.33 856 25.28 2.2 36 63 -4 24.7
00:25 1027 30.33 856 25.28 2.3 36.1 63 -4 24.7
00:30 1027 30.33 856 25.28 2.3 36.2 63 -3.9 24.9
00:35 1027 30.33 856 25.28 2.4 36.3 64 -3.8 25.2
00:40 1027 30.33 857 25.31 2.5 36.4 63 -3.8 25.1
00:45 1027 30.33 857 25.31 2.6 36.7 64 -3.6 25.5
00:50 1027 30.33 857 25.31 2.6 36.7 64 -3.5 25.6
00:55 1027 30.33 857 25.31 2.7 36.9 63 -3.6 25.5
01:00 1027 30.33 857 25.31 2.8 37.1 62 -3.7 25.4
01:05 1027 30.33 856 25.28 2.8 37.1 64 -3.3 26
01:10 1027 30.33 856 25.28 2.4 36.4 67 -3.2 26.3
01:15 1027 30.33 856 25.28 2.1 35.7 66 -3.5 25.6
01:20 1027 30.33 856 25.28 2.1 35.7 67 -3.4 25.9
01:25 1027 30.33 856 25.28 2.1 35.9 66 -3.6 25.5
01:30 1027 30.33 856 25.28 2.1 35.9 65 -3.7 25.3
01:35 1027 30.33 856 25.28 2.1 35.8 65 -3.8 25.2
01:40 1027 30.33 856 25.28 2.1 35.8 66 -3.7 25.3
01:45 1027 30.33 856 25.28 1.9 35.5 67 -3.5 25.6
01:50 1027 30.33 856 25.28 1.9 35.3 67 -3.7 25.4
01:55 1027 30.33 856 25.28 2.1 35.7 67 -3.5 25.7
02:00 1027 30.33 856 25.28 2.1 35.7 70 -2.9 26.9
02:05 1027 30.33 856 25.28 2.1 35.7 71 -2.6 27.3
02:10 1027 30.33 856 25.28 2.2 36 71 -2.6 27.4
02:15 1027 30.33 856 25.28 2.2 35.9 73 -2.2 28.1
02:20 1027 30.33 856 25.28 1.9 35.4 74 -2.3 27.9
02:25 1027 30.33 856 25.28 2 35.6 72 -2.5 27.5
02:30 1027 30.33 856 25.28 2.1 35.8 72 -2.5 27.5
02:35 1027 30.33 856 25.28 2.1 35.7 72 -2.5 27.5
02:40 1027 30.33 857 25.31 2.1 35.7 71 -2.7 27.2
02:45 1027 30.33 857 25.31 2.1 35.8 68 -3.1 26.4
02:50 1027 30.33 857 25.31 2.2 36 69 -2.8 26.9
02:55 1028 30.36 857 25.31 2.2 35.9 69 -2.9 26.8
03:00 1028 30.36 857 25.31 2.1 35.8 69 -3 26.7
03:05 1028 30.36 857 25.31 2 35.7 69 -3 26.5
03:10 1028 30.36 857 25.31 2.1 35.9 69 -2.9 26.8
03:15 1028 30.36 857 25.31 2.3 36.1 69 -2.9 26.7
03:20 1028 30.36 857 25.31 2.2 36 69 -2.9 26.7
03:25 1028 30.36 857 25.31 2.1 35.8 68 -3.1 26.4
03:30 1028 30.36 857 25.31 2.1 35.9 69 -3 26.6
03:35 1028 30.36 857 25.31 2.2 35.9 69 -2.9 26.8
03:40 1028 30.36 857 25.31 2.1 35.9 70 -2.8 26.9
03:45 1028 30.36 857 25.31 2.1 35.7 70 -2.8 27
03:50 1028 30.36 857 25.31 2.2 35.9 68 -3.1 26.4
03:55 1028 30.36 857 25.31 2.4 36.2 69 -2.8 27
04:00 1028 30.36 857 25.31 2.3 36.2 68 -2.9 26.8
04:05 1028 30.36 857 25.31 2.3 36.2 68 -2.9 26.7
04:10 1028 30.36 857 25.31 2.4 36.3 68 -2.9 26.8
04:15 1028 30.36 857 25.31 2.4 36.3 67 -3.1 26.4
04:20 1028 30.36 857 25.31 2.5 36.4 67 -3 26.7
04:25 1028 30.36 857 25.31 2.4 36.3 68 -3 26.6
04:30 1028 30.36 857 25.31 2.3 36.2 69 -2.7 27.1
04:35 1028 30.36 857 25.31 2.2 35.9 70 -2.7 27.1
04:40 1028 30.36 857 25.31 2.1 35.8 71 -2.6 27.3
04:45 1028 30.36 857 25.31 2 35.7 72 -2.5 27.4
04:50 1028 30.36 857 25.31 2 35.6 72 -2.6 27.4
04:55 1028 30.36 857 25.31 1.9 35.5 72 -2.7 27.2
05:00 1028 30.36 857 25.31 2 35.6 71 -2.6 27.2
05:05 1028 30.36 857 25.31 2 35.5 71 -2.7 27.2
05:10 1028 30.36 857 25.31 1.7 35.1 72 -2.8 27
05:15 1028 30.36 857 25.31 1.6 34.8 73 -2.8 27
05:20 1028 30.36 857 25.31 1.7 35 73 -2.7 27.2
05:25 1028 30.36 857 25.31 1.7 35.1 73 -2.6 27.3
05:30 1027 30.33 857 25.31 1.7 35 74 -2.5 27.4
05:35 1027 30.33 857 25.31 1.6 34.9 73 -2.7 27.1
05:40 1027 30.33 857 25.31 1.6 34.9 73 -2.7 27.1
05:45 1027 30.33 857 25.31 1.7 35 72 -2.8 26.9
05:50 1027 30.33 857 25.31 1.7 35.1 72 -2.8 27
05:55 1027 30.33 857 25.31 1.8 35.3 72 -2.7 27.2
06:00 1027 30.33 857 25.31 1.9 35.5 72 -2.7 27.2
06:05 1027 30.33 857 25.31 1.9 35.5 72 -2.7 27.2
06:10 1028 30.36 857 25.31 2 35.6 71 -2.8 26.9
06:15 1028 30.36 857 25.31 2.2 35.9 70 -2.8 27
06:20 1027 30.33 857 25.31 2.3 36.1 69 -2.8 26.9
06:25 1027 30.33 857 25.31 2.3 36.1 69 -2.9 26.8
06:30 1028 30.36 857 25.31 2.3 36.2 68 -2.9 26.7
06:35 1028 30.36 857 25.31 2.3 36.1 68 -3 26.6
06:40 1028 30.36 857 25.31 2.2 36 68 -3 26.5
06:45 1028 30.36 857 25.31 2.4 36.3 67 -3.1 26.4
06:50 1028 30.36 857 25.31 2.5 36.6 66 -3.2 26.3
06:55 1028 30.36 857 25.31 2.7 36.8 66 -3.1 26.4
07:00 1028 30.36 857 25.31 2.7 36.8 66 -3.1 26.4
07:05 1028 30.36 857 25.31 2.7 36.8 66 -3.1 26.4
07:10 1028 30.36 857 25.31 2.7 36.8 66 -3 26.6
07:15 1028 30.36 857 25.31 2.6 36.6 65 -3.3 26.1
07:20 1028 30.36 857 25.31 2.7 36.9 65 -3.1 26.4
07:25 1028 30.36 857 25.31 2.8 37.1 66 -3 26.6
07:30 1028 30.36 857 25.31 2.7 36.8 67 -2.9 26.9
07:35 1028 30.36 857 25.31 2.8 37.1 65 -3 26.5
07:40 1028 30.36 857 25.31 2.9 37.2 65 -2.9 26.7
07:45 1028 30.36 857 25.31 2.9 37.1 66 -2.9 26.8
07:50 1028 30.36 857 25.31 2.8 37 67 -2.8 26.9
07:55 1028 30.36 857 25.31 2.7 36.9 68 -2.6 27.3
08:00 1028 30.36 857 25.31 2.6 36.7 69 -2.5 27.5
08:05 1028 30.36 857 25.31 2.4 36.3 70 -2.5 27.5
08:10 1028 30.36 857 25.31 2.4 36.3 69 -2.7 27.1
08:15 1028 30.36 857 25.31 2.4 36.3 70 -2.5 27.6
08:20 1028 30.36 857 25.31 2.4 36.3 72 -2.2 28
08:25 1028 30.36 857 25.31 2.1 35.8 73 -2.2 28.1
08:30 1028 30.36 857 25.31 1.9 35.4 74 -2.2 28
08:35 1028 30.36 857 25.31 1.8 35.2 75 -2.2 28
08:40 1028 30.36 857 25.31 1.6 34.9 74 -2.5 27.6
08:45 1028 30.36 857 25.31 1.6 34.9 74 -2.5 27.5
08:50 1028 30.36 858 25.34 1.7 35.1 74 -2.4 27.6
08:55 1028 30.36 858 25.34 1.9 35.4 75 -2.1 28.2
09:00 1028 30.36 858 25.34 1.9 35.5 74 -2.3 27.9
09:05 1029 30.39 858 25.34 2 35.6 72 -2.5 27.4
09:10 1029 30.39 858 25.34 2.1 35.9 73 -2.2 28.1
09:15 1029 30.39 858 25.34 2.3 36.1 72 -2.2 28
09:20 1029 30.39 858 25.34 2.3 36.2 72 -2.3 27.9
09:25 1029 30.39 858 25.34 2.4 36.2 72 -2.2 28
09:30 1029 30.39 858 25.34 2.5 36.4 71 -2.3 27.9
09:35 1029 30.39 858 25.34 2.6 36.7 70 -2.3 27.9
09:40 1029 30.39 858 25.34 2.6 36.7 70 -2.2 28
09:45 1029 30.39 858 25.34 2.4 36.2 72 -2.2 28
09:50 1029 30.39 858 25.34 2.6 36.7 70 -2.4 27.6
09:55 1029 30.39 858 25.34 2.7 36.9 69 -2.4 27.8
10:00 1029 30.39 858 25.34 2.7 36.9 70 -2.2 28.1
10:05 1029 30.39 858 25.34 2.5 36.4 70 -2.5 27.5
10:10 1029 30.39 858 25.34 2.5 36.6 70 -2.4 27.6
10:15 1029 30.39 858 25.34 2.7 36.9 67 -2.7 27.1
10:20 1029 30.39 858 25.34 3.1 37.5 67 -2.4 27.7
10:25 1029 30.39 858 25.34 3.3 38 65 -2.5 27.4
10:30 1029 30.39 858 25.34 3.8 38.9 64 -2.4 27.7
10:35 1029 30.39 858 25.34 3.9 39 63 -2.4 27.7
10:40 1029 30.39 858 25.34 4.2 39.5 63 -2.3 27.8
10:45 1029 30.39 858 25.34 5.1 41.1 57 -2.7 27.1
10:50 1029 30.39 858 25.34 5.7 42.3 53 -3.1 26.5
10:55 1029 30.39 858 25.34 6.8 44.2 50 -3 26.5
11:00 1029 30.39 858 25.34 7 44.5 50 -2.7 27.2
11:05 1029 30.39 858 25.34 6.3 43.4 52 -2.8 27
11:10 1029 30.39 858 25.34 6.7 44 50 -3.1 26.5
11:15 1029 30.39 858 25.34 6.7 44 51 -2.7 27.2
11:20 1028 30.36 858 25.34 6 42.7 53 -2.8 27
11:25 1028 30.36 858 25.34 6 42.9 52 -2.9 26.7
11:30 1028 30.36 858 25.34 6.7 44.1 50 -3.1 26.5
11:35 1028 30.36 858 25.34 6.2 43.2 55 -2.2 28.1
11:40 1028 30.36 858 25.34 5.4 41.7 54 -3.1 26.4
11:45 1028 30.36 857 25.31 5.8 42.4 53 -3 26.7
11:50 1028 30.36 857 25.31 6.3 43.3 50 -3.3 26
11:55 1028 30.36 857 25.31 6.8 44.3 50 -2.7 27.1
12:00 1028 30.36 857 25.31 6.7 44.1 51 -2.7 27.2
12:05 1028 30.36 857 25.31 6.2 43.1 52 -3.1 26.5
12:10 1028 30.36 857 25.31 6.9 44.4 50 -2.9 26.9
12:15 1028 30.36 857 25.31 7.2 45 48 -3.1 26.5
12:20 1028 30.36 857 25.31 7.2 44.9 48 -3 26.5
12:25 1028 30.36 857 25.31 7.1 44.7 48 -3.3 26.1
12:30 1028 30.36 857 25.31 7.7 45.9 47 -2.9 26.7
12:35 1028 30.36 857 25.31 7.7 45.9 48 -2.6 27.4
12:40 1028 30.36 857 25.31 6.9 44.4 49 -3.1 26.4
12:45 1028 30.36 857 25.31 7.5 45.5 48 -2.8 26.9
12:50 1028 30.36 857 25.31 8.2 46.8 43 -3.4 25.8
12:55 1028 30.36 857 25.31 8.5 47.3 43 -3.3 26.1
13:00 1028 30.36 857 25.31 8.4 47 43 -3.4 25.9
13:05 1028 30.36 857 25.31 7.9 46.1 44 -3.6 25.6
13:10 1027 30.33 857 25.31 8.2 46.8 43 -3.7 25.4
13:15 1027 30.33 857 25.31 8.4 47 44 -3.3 26.1
13:20 1027 30.33 857 25.31 8.3 47 41 -4.2 24.5
13:25 1027 30.33 857 25.31 8.6 47.4 41 -3.8 25.1
13:30 1028 30.36 857 25.31 9 48.2 41 -3.6 25.6
13:35 1028 30.36 857 25.31 9 48.2 42 -3.2 26.2
13:40 1027 30.33 857 25.31 9.1 48.3 40 -3.7 25.4
13:45 1027 30.33 857 25.31 8.9 47.9 42 -3.4 25.8
13:50 1027 30.33 857 25.31 8.2 46.8 43 -3.6 25.6
13:55 1027 30.33 857 25.31 8.7 47.7 42 -3.5 25.7
14:00 1027 30.33 857 25.31 8.6 47.5 44 -3 26.7
14:05 1027 30.33 857 25.31 7.9 46.3 44 -3.4 25.8
14:10 1027 30.33 857 25.31 8.2 46.8 43 -3.7 25.4
14:15 1027 30.33 857 25.31 8.6 47.5 44 -2.9 26.8
14:20 1027 30.33 857 25.31 8.2 46.7 44 -3.2 26.2
14:25 1027 30.33 857 25.31 8.4 47.1 41 -4 24.8
14:30 1027 30.33 857 25.31 8.8 47.8 42 -3.5 25.7
14:35 1027 30.33 857 25.31 8.9 48 41 -3.7 25.4
14:40 1027 30.33 857 25.31 9.2 48.6 40 -3.5 25.7
14:45 1027 30.33 857 25.31 9 48.3 43 -2.8 27
14:50 1027 30.33 857 25.31 8.6 47.5 47 -1.9 28.6
14:55 1027 30.33 857 25.31 7.6 45.6 50 -2.3 27.9
15:00 1027 30.33 857 25.31 7.6 45.7 48 -2.6 27.3
15:05 1027 30.33 857 25.31 7.3 45.2 49 -2.7 27.1
15:10 1027 30.33 857 25.31 8.1 46.6 46 -2.7 27.1
15:15 1027 30.33 857 25.31 8.5 47.2 44 -3 26.7
15:20 1028 30.36 857 25.31 8.5 47.4 41 -4 24.8
15:25 1028 30.36 857 25.31 7.4 45.4 43 -4.2 24.5
15:30 1028 30.36 857 25.31 7.4 45.3 43 -4.3 24.2
15:35 1028 30.36 857 25.31 8.2 46.7 39 -4.8 23.4
15:40 1028 30.36 857 25.31 8.2 46.7 41 -4.1 24.6
15:45 1028 30.36 857 25.31 8.8 47.8 39 -4.3 24.3
15:50 1028 30.36 857 25.31 8.8 47.8 41 -3.8 25.2
15:55 1028 30.36 857 25.31 9 48.3 42 -3.2 26.2
16:00 1028 30.36 857 25.31 8.1 46.6 47 -2.4 27.7
16:05 1028 30.36 857 25.31 7.2 44.9 48 -3.1 26.4
16:10 1028 30.36 857 25.31 7.4 45.4 46 -3.5 25.8
16:15 1028 30.36 857 25.31 7.3 45.2 48 -3.1 26.5
16:20 1028 30.36 857 25.31 7.2 44.9 49 -2.8 27
16:25 1028 30.36 857 25.31 6.8 44.3 48 -3.3 26.1
16:30 1028 30.36 857 25.31 6.7 44 49 -3.3 26.1
16:35 1028 30.36 857 25.31 6.8 44.2 49 -3.1 26.4
16:40 1027 30.33 857 25.31 6.7 44.1 49 -3.2 26.2
16:45 1027 30.33 857 25.31 6.4 43.6 51 -3 26.6
16:50 1027 30.33 857 25.31 5.8 42.4 54 -2.9 26.8
16:55 1027 30.33 857 25.31 5.5 41.8 54 -3.1 26.4
17:00 1027 30.33 857 25.31 5.1 41.1 55 -3.2 26.2
17:05 1027 30.33 857 25.31 4.7 40.4 55 -3.5 25.7
17:10 1028 30.36 857 25.31 4.8 40.6 57 -3.1 26.5
17:15 1028 30.36 857 25.31 4.5 40.1 57 -3.2 26.3
17:20 1028 30.36 857 25.31 4.8 40.6 57 -3.1 26.4
17:25 1028 30.36 857 25.31 4.5 40 58 -3 26.6
17:30 1028 30.36 857 25.31 3.9 38.9 60 -3.1 26.4
17:35 1028 30.36 857 25.31 3.8 38.9 59 -3.3 26
17:40 1028 30.36 857 25.31 4.1 39.3 60 -2.9 26.8
17:45 1028 30.36 857 25.31 3.7 38.6 62 -3 26.6
17:50 1028 30.36 857 25.31 3.5 38.2 62 -3.1 26.3
17:55 1028 30.36 857 25.31 3.6 38.4 62 -3.1 26.3
18:00 1028 30.36 857 25.31 3.6 38.4 61 -3.2 26.2
18:05 1028 30.36 857 25.31 3.4 38.2 63 -3 26.5
18:10 1028 30.36 857 25.31 3.1 37.5 62 -3.5 25.8
18:15 1028 30.36 857 25.31 2.9 37.2 63 -3.4 25.9
18:20 1028 30.36 857 25.31 2.7 36.9 63 -3.7 25.4
18:25 1028 30.36 857 25.31 2.8 37 63 -3.6 25.6
18:30 1028 30.36 857 25.31 2.7 36.8 62 -3.9 25
18:35 1028 30.36 857 25.31 2.6 36.7 64 -3.5 25.7
18:40 1028 30.36 857 25.31 2.7 36.9 62 -3.9 25
18:45 1028 30.36 857 25.31 2.7 36.8 63 -3.7 25.4
18:50 1028 30.36 857 25.31 2.7 36.9 62 -3.9 24.9
18:55 1028 30.36 857 25.31 2.4 36.4 63 -3.9 24.9
19:00 1028 30.36 857 25.31 2.3 36.1 63 -4 24.7
19:05 1028 30.36 857 25.31 3 37.5 60 -3.9 24.9
19:10 1028 30.36 857 25.31 3.3 38 59 -4 24.8
19:15 1028 30.36 857 25.31 3.2 37.8 59 -4.1 24.6
19:20 1028 30.36 857 25.31 3.6 38.5 58 -3.8 25.2
19:25 1028 30.36 857 25.31 3.9 39 55 -4.2 24.4
19:30 1028 30.36 857 25.31 4.8 40.6 51 -4.5 23.9
19:35 1028 30.36 857 25.31 4.8 40.7 52 -4.1 24.6
19:40 1028 30.36 857 25.31 4.4 39.9 53 -4.5 24
19:45 1028 30.36 857 25.31 4.1 39.4 56 -4 24.8
19:50 1028 30.36 858 25.34 2.6 36.7 62 -4 24.8
19:55 1028 30.36 858 25.34 1.9 35.4 62 -4.5 23.9
20:00 1028 30.36 858 25.34 2.5 36.6 60 -4.5 23.9
20:05 1028 30.36 858 25.34 3.5 38.4 55 -4.6 23.8
20:10 1028 30.36 858 25.34 3.5 38.3 56 -4.5 24
20:15 1028 30.36 858 25.34 3.4 38.1 58 -4.2 24.4
20:20 1028 30.36 858 25.34 3.3 37.9 57 -4.4 24.1
20:25 1028 30.36 858 25.34 3.1 37.6 57 -4.5 23.9
20:30 1028 30.36 858 25.34 3.8 38.9 53 -5 23
20:35 1029 30.39 858 25.34 4.5 40 53 -4.3 24.2
20:40 1029 30.39 858 25.34 3.9 39 55 -4.4 24.1
20:45 1029 30.39 858 25.34 3.8 38.8 54 -4.8 23.4
20:50 1029 30.39 858 25.34 3.2 37.8 59 -4 24.8
20:55 1029 30.39 858 25.34 2.1 35.8 61 -4.6 23.7
21:00 1029 30.39 858 25.34 1.7 35 63 -4.6 23.7
21:05 1029 30.39 858 25.34 1.3 34.3 66 -4.4 24
21:10 1029 30.39 858 25.34 1.6 34.8 64 -4.6 23.7
21:15 1029 30.39 858 25.34 2 35.7 63 -4.2 24.4
21:20 1029 30.39 858 25.34 1.8 35.2 64 -4.2 24.4
21:25 1029 30.39 858 25.34 1.6 34.9 67 -4 24.9
21:30 1029 30.39 858 25.34 1.3 34.4 66 -4.4 24
21:35 1029 30.39 858 25.34 1.4 34.5 67 -4.1 24.7
21:40 1029 30.39 858 25.34 1.4 34.6 65 -4.4 24.1
21:45 1029 30.39 858 25.34 1.1 34 69 -3.9 25
21:50 1029 30.39 858 25.34 1.3 34.4 67 -4.1 24.7
21:55 1029 30.39 858 25.34 1.4 34.5 67 -4.1 24.6
22:00 1029 30.39 858 25.34 1.4 34.6 67 -4 24.9
22:05 1029 30.39 858 25.34 1.4 34.6 66 -4.2 24.4
22:10 1029 30.39 858 25.34 1.6 34.8 66 -4.1 24.7
22:15 1029 30.39 858 25.34 1.5 34.6 66 -4.2 24.4
22:20 1029 30.39 858 25.34 1.4 34.5 65 -4.5 24
22:25 1029 30.39 858 25.34 1.4 34.5 65 -4.6 23.7
22:30 1029 30.39 858 25.34 1.2 34.2 65 -4.6 23.8
22:35 1029 30.39 858 25.34 1.4 34.6 66 -4.3 24.2
22:40 1029 30.39 858 25.34 1.4 34.6 65 -4.4 24.1
22:45 1029 30.39 858 25.34 1.1 34.1 65 -4.6 23.7
22:50 1029 30.39 858 25.34 0.9 33.5 67 -4.6 23.6
22:55 1029 30.39 858 25.34 0.9 33.6 66 -4.7 23.5
23:00 1029 30.39 858 25.34 0.9 33.5 66 -4.7 23.5
23:05 1029 30.39 858 25.34 1.1 34 66 -4.6 23.8
23:10 1029 30.39 858 25.34 1.3 34.3 66 -4.4 24.1
23:15 1029 30.39 858 25.34 1.1 34 66 -4.6 23.8
23:20 1029 30.39 858 25.34 0.9 33.7 66 -4.7 23.5
23:25 1029 30.39 858 25.34 1.1 34 65 -4.7 23.5
23:30 1029 30.39 858 25.34 1 33.8 65 -4.8 23.4
23:35 1029 30.39 858 25.34 0.6 33.2 67 -4.8 23.4
23:40 1029 30.39 858 25.34 0.4 32.7 67 -5.1 22.8
23:45 1029 30.39 858 25.34 0.8 33.4 66 -4.8 23.4
23:50 1029 30.39 858 25.34 0.6 33.1 67 -4.9 23.2
23:55 1029 30.39 858 25.34 0.2 32.3 69 -4.8 23.3
24:00 1029 30.39 858 25.34 -0.5 31 72 -4.9 23.2